Terminal Aerodrome Forecast
Issued by NWS

Home | Current Version | Previous Version | Text Only | Print | Product List | Glossary On
Versions: 1 2 3 4 5 6 7 8 9 10 11 12 13 14 15 16 17 18 19 20 21 22 23 24 25 26 27 28 29 30 31 32 33 34 35 36
014
FTUS43 KDTX 210520
TAFYIP
TAF
KYIP 210520Z 2106/2206 20014KT P6SM BKN250 WS012/22042KT
     FM211400 22016G26KT P6SM BKN150
     FM211800 24015G24KT P6SM BKN035 OVC080
     FM212100 28014G22KT P6SM SCT025 OVC045 PROB30 2121/2124 5SM
      -SHRA BKN025 OVC040
     FM220000 30012G22KT P6SM BKN040
     FM220400 29008KT P6SM SCT028 SCT050=

USA.gov is the U.S. government's official web portal to all federal, state and local government web resources and services.